Time;durP1;ratioP1;P1;durP2;ratioP2;P2;SDS_P1;SDS_P2;PMS_P1;PMS_P2;Temp;Humidity;BMP_temperature;BMP_pressure;BME280_temperature;BME280_humidity;BME280_pressure;Samples;Min_cycle;Max_cycle;Signal;HPM_P1;HPM_P2
2021/11/21 00:01:22;;;;;;;23.02;14.05;;;;;;;5.13;100.00;100393.47;5074065;28;20057;-71
2021/11/21 00:03:51;;;;;;;27.02;14.15;;;;;;;5.30;100.00;100394.63;5074191;28;20443;-71
2021/11/21 00:06:20;;;;;;;23.23;13.20;;;;;;;5.26;100.00;100398.31;5074129;28;20485;-71
2021/11/21 00:08:49;;;;;;;25.92;13.93;;;;;;;5.09;100.00;100396.25;5074086;28;20049;-71
2021/11/21 00:11:17;;;;;;;23.02;14.73;;;;;;;5.05;100.00;100389.38;5072695;28;20049;-71
2021/11/21 00:13:48;;;;;;;26.52;15.23;;;;;;;5.13;100.00;100380.25;5073608;28;20090;-71
2021/11/21 00:16:16;;;;;;;27.30;15.00;;;;;;;5.07;100.00;100375.16;5073988;28;20045;-71
2021/11/21 00:18:44;;;;;;;26.45;14.88;;;;;;;5.05;100.00;100374.38;5073615;28;20044;-71
2021/11/21 00:21:13;;;;;;;26.27;14.25;;;;;;;4.97;100.00;100376.41;5073556;28;20067;-71
2021/11/21 00:23:42;;;;;;;25.90;14.65;;;;;;;5.15;100.00;100369.59;5073548;28;20048;-71
2021/11/21 00:26:10;;;;;;;24.23;14.77;;;;;;;5.19;100.00;100376.50;5073405;28;20478;-71
2021/11/21 00:28:39;;;;;;;31.65;18.33;;;;;;;4.97;100.00;100371.13;5073457;28;20079;-71
2021/11/21 00:31:07;;;;;;;29.15;17.92;;;;;;;4.84;100.00;100380.41;5072259;28;20051;-71
2021/11/21 00:33:35;;;;;;;33.75;20.10;;;;;;;4.72;100.00;100375.53;5073295;28;20587;-71
2021/11/21 00:36:04;;;;;;;33.72;21.15;;;;;;;4.68;100.00;100376.56;5073551;28;20048;-71
2021/11/21 00:38:34;;;;;;;39.15;23.58;;;;;;;4.77;100.00;100376.25;5073358;28;20044;-71
2021/11/21 00:41:04;;;;;;;40.35;24.23;;;;;;;4.94;100.00;100368.59;5073485;28;20086;-71
2021/11/21 00:43:33;;;;;;;36.97;23.10;;;;;;;4.92;100.00;100367.75;5072493;28;20041;-71
2021/11/21 00:46:02;;;;;;;40.00;23.98;;;;;;;4.72;100.00;100360.53;5073398;28;20041;-71
2021/11/21 00:48:31;;;;;;;38.58;23.65;;;;;;;4.71;100.00;100360.59;5073244;28;20123;-71
2021/11/21 00:51:01;;;;;;;40.25;25.00;;;;;;;4.66;100.00;100362.53;5073094;28;20094;-71
2021/11/21 00:53:31;;;;;;;38.65;23.52;;;;;;;4.58;100.00;100357.50;5073235;28;20047;-71
2021/11/21 00:56:04;;;;;;;39.33;23.58;;;;;;;4.48;100.00;100356.97;5073192;28;20462;-71
2021/11/21 00:58:35;;;;;;;39.78;23.65;;;;;;;4.49;100.00;100358.69;5073181;28;20064;-71
2021/11/21 01:01:05;;;;;;;33.70;21.42;;;;;;;4.50;100.00;100365.69;5073385;28;20098;-71
2021/11/21 01:03:35;;;;;;;40.72;23.30;;;;;;;4.48;100.00;100362.25;5072849;28;20060;-71
2021/11/21 01:06:03;;;;;;;40.67;22.70;;;;;;;4.60;100.00;100367.09;5072960;28;20139;-71
2021/11/21 01:08:32;;;;;;;37.28;22.75;;;;;;;4.46;100.00;100353.50;5073000;28;20049;-71
2021/11/21 01:11:05;;;;;;;38.28;22.30;;;;;;;4.50;100.00;100352.47;5073385;28;20378;-70
2021/11/21 01:13:37;;;;;;;39.47;22.73;;;;;;;4.35;100.00;100347.72;5073052;28;20505;-71
2021/11/21 01:16:06;;;;;;;43.97;24.80;;;;;;;4.24;100.00;100347.19;5073163;28;20127;-71
2021/11/21 01:18:36;;;;;;;44.97;24.60;;;;;;;4.09;100.00;100342.41;5072605;28;20085;-71
2021/11/21 01:21:05;;;;;;;40.67;23.27;;;;;;;4.03;100.00;100339.06;5073141;28;20048;-71
2021/11/21 01:23:33;;;;;;;39.83;23.70;;;;;;;3.94;100.00;100344.63;5072936;28;20052;-71
2021/11/21 01:26:01;;;;;;;44.13;24.17;;;;;;;3.85;100.00;100350.19;5072825;28;20054;-71
2021/11/21 01:28:31;;;;;;;43.28;24.40;;;;;;;3.80;100.00;100352.13;5072500;28;20139;-71
2021/11/21 01:31:00;;;;;;;43.72;24.80;;;;;;;3.82;100.00;100345.00;5072984;28;20506;-70
2021/11/21 01:33:31;;;;;;;43.20;24.60;;;;;;;3.82;100.00;100339.72;5073000;28;20052;-71
2021/11/21 01:36:00;;;;;;;43.75;24.35;;;;;;;3.83;100.00;100344.09;5071699;28;20040;-71
2021/11/21 01:38:28;;;;;;;42.88;24.60;;;;;;;3.80;100.00;100336.28;5073077;28;20036;-71
2021/11/21 01:40:56;;;;;;;41.13;23.38;;;;;;;3.76;100.00;100333.78;5072815;28;20078;-71
2021/11/21 01:43:24;;;;;;;41.78;23.55;;;;;;;3.70;100.00;100327.78;5072918;28;20041;-71
2021/11/21 01:45:53;;;;;;;42.00;23.15;;;;;;;3.66;100.00;100334.06;5072335;28;20545;-71
2021/11/21 01:48:23;;;;;;;41.75;24.33;;;;;;;3.58;100.00;100327.31;5071160;28;20083;-71
2021/11/21 01:50:54;;;;;;;41.38;23.10;;;;;;;3.66;100.00;100328.78;5072702;28;20471;-71
2021/11/21 01:53:22;;;;;;;38.72;23.15;;;;;;;3.54;100.00;100329.16;5072916;28;20456;-71
2021/11/21 01:55:50;;;;;;;39.05;23.25;;;;;;;3.66;100.00;100318.22;5075074;28;20496;-71
2021/11/21 01:58:18;;;;;;;43.42;23.75;;;;;;;3.61;100.00;100314.03;5076433;28;20044;-71
2021/11/21 02:00:48;;;;;;;38.88;23.65;;;;;;;3.53;100.00;100305.47;5075919;28;20095;-71
2021/11/21 02:03:18;;;;;;;38.08;23.13;;;;;;;3.51;100.00;100302.88;5076527;28;20049;-71
2021/11/21 02:05:48;;;;;;;42.13;23.38;;;;;;;3.51;100.00;100299.38;5076169;28;20046;-71
2021/11/21 02:08:16;;;;;;;39.08;22.52;;;;;;;3.55;100.00;100298.38;5076261;28;20094;-70
2021/11/21 02:10:44;;;;;;;38.55;23.25;;;;;;;3.59;100.00;100284.19;5074752;28;20115;-71
2021/11/21 02:13:13;;;;;;;37.72;23.00;;;;;;;3.55;100.00;100287.81;5076062;28;20040;-71
2021/11/21 02:15:44;;;;;;;43.72;24.02;;;;;;;3.46;100.00;100283.69;5075967;28;20036;-71
2021/11/21 02:18:14;;;;;;;43.08;24.58;;;;;;;3.42;100.00;100288.22;5075926;28;20041;-71
2021/11/21 02:20:51;;;;;;;41.83;24.00;;;;;;;3.50;100.00;100279.22;5075654;28;20405;-71
2021/11/21 02:23:21;;;;;;;41.00;24.38;;;;;;;3.50;100.00;100281.84;5076040;28;20047;-71
2021/11/21 02:25:49;;;;;;;40.33;24.17;;;;;;;3.41;100.00;100280.34;5075742;28;20449;-71
2021/11/21 02:28:18;;;;;;;42.97;24.30;;;;;;;3.41;100.00;100275.94;5076078;28;20048;-71
2021/11/21 02:30:46;;;;;;;46.13;26.08;;;;;;;3.37;100.00;100271.66;5075771;28;20095;-71
2021/11/21 02:33:17;;;;;;;43.58;24.55;;;;;;;3.49;100.00;100273.06;5075949;28;20106;-71
2021/11/21 02:35:49;;;;;;;40.40;23.80;;;;;;;3.45;100.00;100267.00;5075577;28;20421;-71
2021/11/21 02:38:21;;;;;;;43.15;24.02;;;;;;;3.56;100.00;100261.41;5075658;28;20051;-71
2021/11/21 02:40:50;;;;;;;39.03;23.07;;;;;;;3.54;100.00;100265.00;5075365;28;20047;-71
2021/11/21 02:43:19;;;;;;;36.97;23.20;;;;;;;3.51;100.00;100260.69;5075441;28;20184;-71
2021/11/21 02:45:49;;;;;;;41.08;23.30;;;;;;;3.42;100.00;100256.56;5075381;28;20045;-72
2021/11/21 02:48:19;;;;;;;43.50;24.60;;;;;;;3.38;100.00;100254.94;5075894;28;20371;-71
2021/11/21 02:50:48;;;;;;;44.47;24.90;;;;;;;3.45;100.00;100251.19;5075665;28;20045;-71
2021/11/21 02:53:19;;;;;;;45.92;26.38;;;;;;;3.55;100.00;100246.47;5075173;28;20075;-71
2021/11/21 02:55:51;;;;;;;47.42;26.38;;;;;;;3.50;100.00;100247.56;5075162;28;20486;-71
2021/11/21 02:58:20;;;;;;;45.47;25.98;;;;;;;3.45;100.00;100239.78;5075572;28;20049;-71
2021/11/21 03:00:48;;;;;;;46.47;24.55;;;;;;;3.34;100.00;100240.09;5075154;28;20090;-71
2021/11/21 03:03:17;;;;;;;42.40;24.83;;;;;;;3.44;100.00;100235.41;5075373;28;20041;-71
2021/11/21 03:05:45;;;;;;;40.35;24.35;;;;;;;3.50;100.00;100232.59;5074523;28;20046;-71
2021/11/21 03:08:14;;;;;;;45.10;25.65;;;;;;;3.49;100.00;100228.25;5075049;28;20127;-71
2021/11/21 03:10:43;;;;;;;41.00;24.52;;;;;;;3.36;100.00;100233.00;5073939;28;20131;-72
2021/11/21 03:13:12;;;;;;;42.28;25.15;;;;;;;3.37;100.00;100237.38;5074818;28;20067;-71
2021/11/21 03:15:40;;;;;;;39.78;24.48;;;;;;;3.47;100.00;100240.59;5074848;28;20135;-72
2021/11/21 03:18:09;;;;;;;42.03;24.33;;;;;;;3.49;100.00;100232.66;5074011;28;20056;-71
2021/11/21 03:20:38;;;;;;;37.40;23.33;;;;;;;3.47;100.00;100226.53;5074654;28;20044;-71
2021/11/21 03:23:07;;;;;;;42.35;24.38;;;;;;;3.45;100.00;100224.81;5074859;28;20036;-71
2021/11/21 03:25:36;;;;;;;40.03;25.05;;;;;;;3.41;100.00;100222.34;5074512;28;20041;-71
2021/11/21 03:28:06;;;;;;;35.97;22.67;;;;;;;3.38;100.00;100214.53;5074791;28;20044;-71
2021/11/21 03:30:35;;;;;;;37.58;22.45;;;;;;;3.33;100.00;100214.66;5074553;28;20398;-71
2021/11/21 03:33:03;;;;;;;41.20;23.40;;;;;;;3.20;100.00;100201.91;5073536;28;20401;-71
2021/11/21 03:35:31;;;;;;;41.38;23.40;;;;;;;3.21;100.00;100209.78;5074591;28;20040;-72
2021/11/21 03:38:00;;;;;;;40.88;22.13;;;;;;;3.02;100.00;100208.59;5074421;28;20041;-71
2021/11/21 03:40:28;;;;;;;41.38;24.30;;;;;;;2.85;100.00;100207.31;5074605;28;20466;-71
2021/11/21 03:42:58;;;;;;;41.08;24.02;;;;;;;2.75;100.00;100205.88;5074038;28;20044;-72
2021/11/21 03:45:28;;;;;;;42.38;23.67;;;;;;;2.65;100.00;100206.19;5074642;28;20036;-71
2021/11/21 03:47:56;;;;;;;44.72;24.85;;;;;;;2.49;100.00;100201.34;5074219;28;20048;-72
2021/11/21 03:50:25;;;;;;;44.72;24.73;;;;;;;2.33;100.00;100194.78;5074324;28;20044;-72
2021/11/21 03:52:53;;;;;;;42.50;24.08;;;;;;;2.42;100.00;100191.91;5073925;28;20397;-71
2021/11/21 03:55:21;;;;;;;42.60;24.15;;;;;;;2.49;100.00;100182.03;5074357;28;20102;-71
2021/11/21 03:57:50;;;;;;;41.55;24.90;;;;;;;2.44;100.00;100182.19;5073584;28;20067;-71
2021/11/21 04:00:20;;;;;;;46.38;26.52;;;;;;;2.49;100.00;100177.63;5074175;28;20043;-71
2021/11/21 04:02:50;;;;;;;43.63;23.50;;;;;;;2.64;100.00;100181.63;5074545;28;20367;-71
2021/11/21 04:05:20;;;;;;;39.88;23.40;;;;;;;2.74;100.00;100180.44;5074038;28;20045;-71
2021/11/21 04:07:49;;;;;;;39.05;22.00;;;;;;;2.70;100.00;100177.91;5072751;28;20474;-71
2021/11/21 04:10:18;;;;;;;44.30;23.65;;;;;;;2.54;100.00;100178.38;5072595;28;20562;-71
2021/11/21 04:12:46;;;;;;;41.63;23.35;;;;;;;2.52;100.00;100184.59;5073421;28;20044;-72
2021/11/21 04:15:15;;;;;;;40.47;22.65;;;;;;;2.53;100.00;100178.44;5073593;28;20459;-71
2021/11/21 04:17:44;;;;;;;42.60;23.52;;;;;;;2.56;100.00;100180.97;5071531;28;20044;-72
2021/11/21 04:20:14;;;;;;;39.80;23.15;;;;;;;2.44;100.00;100173.44;5073857;28;20056;-71
2021/11/21 04:22:43;;;;;;;57.08;29.33;;;;;;;2.28;100.00;100181.72;5073697;28;20045;-72
2021/11/21 04:25:12;;;;;;;57.50;29.17;;;;;;;2.33;100.00;100175.50;5073487;28;20049;-71
2021/11/21 04:27:41;;;;;;;61.35;33.00;;;;;;;2.21;100.00;100171.41;5073720;28;20474;-71
2021/11/21 04:30:11;;;;;;;63.45;30.70;;;;;;;2.13;100.00;100166.38;5073803;28;20041;-71
2021/11/21 04:32:41;;;;;;;54.58;28.27;;;;;;;2.14;100.00;100170.72;5073463;28;20098;-71
2021/11/21 04:35:10;;;;;;;45.28;25.73;;;;;;;2.06;100.00;100161.31;5073419;28;20059;-71
2021/11/21 04:37:41;;;;;;;48.33;25.55;;;;;;;1.96;100.00;100164.19;5073767;28;20041;-71
2021/11/21 04:40:11;;;;;;;45.92;24.65;;;;;;;2.04;100.00;100158.72;5073363;28;20478;-71
2021/11/21 04:42:40;;;;;;;44.28;24.35;;;;;;;2.23;100.00;100154.69;5073673;28;20120;-71
2021/11/21 04:45:09;;;;;;;54.05;24.98;;;;;;;2.27;100.00;100155.47;5073274;28;20048;-72
2021/11/21 04:47:38;;;;;;;58.38;27.10;;;;;;;2.17;100.00;100159.25;5073427;28;20045;-71
2021/11/21 04:50:09;;;;;;;67.07;27.10;;;;;;;2.11;100.00;100152.38;5072936;28;20494;-71
2021/11/21 04:52:37;;;;;;;70.50;24.95;;;;;;;2.20;100.00;100153.91;5073436;28;20064;-71
2021/11/21 04:55:09;;;;;;;66.82;26.10;;;;;;;1.87;100.00;100151.28;5073050;28;20055;-72
2021/11/21 04:57:39;;;;;;;79.50;24.88;;;;;;;1.97;100.00;100141.38;5073558;28;20106;-72
2021/11/21 05:00:15;;;;;;;106.30;26.95;;;;;;;1.95;100.00;100143.19;5072799;28;20072;-72
2021/11/21 05:02:44;;;;;;;100.95;25.52;;;;;;;1.95;100.00;100146.69;5073309;28;20135;-71
2021/11/21 05:05:13;;;;;;;109.88;26.00;;;;;;;1.88;100.00;100149.50;5073208;28;20565;-71
2021/11/21 05:07:42;;;;;;;116.18;26.60;;;;;;;1.86;100.00;100148.69;5073047;28;20045;-73
2021/11/21 05:10:12;;;;;;;90.47;25.27;;;;;;;1.86;100.00;100153.94;5072985;28;20090;-72
2021/11/21 05:12:41;;;;;;;116.75;25.63;;;;;;;2.10;100.00;100140.13;5073372;28;20064;-72
2021/11/21 05:15:12;;;;;;;143.20;26.13;;;;;;;2.08;100.00;100139.31;5072944;28;20044;-71
2021/11/21 05:17:42;;;;;;;112.88;26.35;;;;;;;1.94;100.00;100141.47;5072854;28;20075;-71
2021/11/21 05:20:10;;;;;;;90.82;26.77;;;;;;;2.09;100.00;100130.50;5072912;28;20041;-70
2021/11/21 05:22:39;;;;;;;90.18;22.88;;;;;;;2.15;100.00;100126.84;5073100;28;20036;-72
2021/11/21 05:25:08;;;;;;;159.77;24.52;;;;;;;2.12;100.00;100125.16;5072580;28;20036;-72
2021/11/21 05:27:39;;;;;;;131.65;23.98;;;;;;;1.82;100.00;100126.84;5073117;28;20049;-72
2021/11/21 05:30:07;;;;;;;122.65;23.55;;;;;;;1.64;100.00;100117.69;5076163;28;20481;-71
2021/11/21 05:32:36;;;;;;;112.82;23.10;;;;;;;1.80;100.00;100112.88;5076994;28;20547;-71
2021/11/21 05:35:05;;;;;;;100.85;23.42;;;;;;;1.83;100.00;100109.31;5076826;28;20056;-72
2021/11/21 05:37:35;;;;;;;129.90;24.90;;;;;;;1.71;100.00;100119.25;5077281;28;20366;-71
2021/11/21 05:40:06;;;;;;;140.23;23.67;;;;;;;1.67;100.00;100120.25;5076484;28;20044;-72
2021/11/21 05:42:34;;;;;;;110.78;21.50;;;;;;;1.80;100.00;100114.66;5077036;28;20045;-72
2021/11/21 05:45:05;;;;;;;65.35;19.75;;;;;;;1.96;100.00;100108.09;5076334;28;20040;-71
2021/11/21 05:47:33;;;;;;;76.63;19.08;;;;;;;1.96;100.00;100113.34;5076881;28;20055;-71
2021/11/21 05:50:02;;;;;;;96.65;18.45;;;;;;;2.08;100.00;100105.09;5076732;28;20040;-72
2021/11/21 05:52:31;;;;;;;88.22;17.88;;;;;;;1.98;100.00;100112.38;5076720;28;20045;-71
2021/11/21 05:54:59;;;;;;;42.42;16.17;;;;;;;2.14;100.00;100111.97;5076469;28;20512;-72
2021/11/21 05:57:27;;;;;;;60.25;17.45;;;;;;;2.11;100.00;100112.91;5076445;28;20049;-69
2021/11/21 05:59:56;;;;;;;43.25;14.85;;;;;;;2.00;100.00;100120.25;5076289;28;20120;-71
2021/11/21 06:02:25;;;;;;;62.90;16.38;;;;;;;1.89;100.00;100122.31;5076272;28;20110;-72
2021/11/21 06:04:54;;;;;;;80.15;17.63;;;;;;;1.73;100.00;100122.69;5076142;28;20410;-72
2021/11/21 06:07:22;;;;;;;81.30;17.70;;;;;;;1.65;100.00;100114.16;5076162;28;20068;-71
2021/11/21 06:09:50;;;;;;;52.10;16.83;;;;;;;1.70;100.00;100128.03;5076080;28;20087;-71
2021/11/21 06:12:18;;;;;;;125.30;19.10;;;;;;;1.69;100.00;100123.69;5076275;28;20501;-72
2021/11/21 06:14:47;;;;;;;47.15;17.52;;;;;;;1.68;100.00;100126.38;5076227;28;20406;-71
2021/11/21 06:17:15;;;;;;;55.63;16.30;;;;;;;1.90;100.00;100124.03;5075635;28;20048;-72
2021/11/21 06:19:46;;;;;;;34.67;15.15;;;;;;;2.10;100.00;100119.06;5076103;28;20075;-71
2021/11/21 06:22:17;;;;;;;49.85;17.17;;;;;;;1.91;100.00;100120.47;5076040;28;20041;-71
2021/11/21 06:24:46;;;;;;;45.58;15.57;;;;;;;1.86;100.00;100130.28;5076082;28;20051;-72
2021/11/21 06:27:15;;;;;;;57.10;17.05;;;;;;;1.82;100.00;100123.34;5075730;28;20052;-71
2021/11/21 06:29:44;;;;;;;36.10;16.25;;;;;;;1.91;100.00;100123.97;5075678;28;20485;-72
2021/11/21 06:32:13;;;;;;;66.43;16.65;;;;;;;1.98;100.00;100116.78;5075432;28;20102;-71
2021/11/21 06:34:41;;;;;;;36.20;15.60;;;;;;;2.16;100.00;100118.91;5075736;28;20048;-71
2021/11/21 06:37:11;;;;;;;80.07;16.88;;;;;;;2.15;100.00;100121.59;5075318;28;20073;-72
2021/11/21 06:39:41;;;;;;;45.78;15.63;;;;;;;2.15;100.00;100111.94;5075218;28;20049;-72
2021/11/21 06:42:12;;;;;;;35.15;14.35;;;;;;;2.04;100.00;100114.00;5075101;28;20049;-72
2021/11/21 06:44:42;;;;;;;54.67;16.50;;;;;;;1.96;100.00;100115.97;5075756;28;20040;-71
2021/11/21 06:47:13;;;;;;;55.58;16.55;;;;;;;1.94;100.00;100112.53;5075442;28;20090;-72
2021/11/21 06:49:41;;;;;;;43.08;16.52;;;;;;;2.08;100.00;100107.75;5075355;28;20044;-72
2021/11/21 06:52:10;;;;;;;47.25;16.13;;;;;;;2.05;100.00;100112.22;5075388;28;20038;-72
2021/11/21 06:54:39;;;;;;;44.90;15.60;;;;;;;2.01;100.00;100107.03;5075346;28;20044;-71
2021/11/21 06:57:07;;;;;;;37.92;15.18;;;;;;;2.16;100.00;100102.28;5073737;28;20110;-72
2021/11/21 06:59:35;;;;;;;37.25;15.52;;;;;;;2.10;100.00;100116.44;5075499;28;20071;-71
2021/11/21 07:02:04;;;;;;;84.45;15.77;;;;;;;2.01;100.00;100108.81;5075174;28;20068;-71
2021/11/21 07:04:34;;;;;;;31.42;15.02;;;;;;;1.96;100.00;100110.72;5075069;28;20482;-71
2021/11/21 07:07:06;;;;;;;49.63;17.15;;;;;;;2.04;100.00;100110.50;5075086;28;20037;-72
2021/11/21 07:09:36;;;;;;;69.18;16.27;;;;;;;1.88;100.00;100115.31;5075592;28;20036;-71
2021/11/21 07:12:06;;;;;;;52.33;16.10;;;;;;;1.98;100.00;100106.25;5075293;28;20044;-71
2021/11/21 07:14:36;;;;;;;40.15;16.52;;;;;;;2.11;100.00;100099.75;5075404;28;20048;-71
2021/11/21 07:17:05;;;;;;;36.20;15.85;;;;;;;2.26;100.00;100101.09;5074823;28;20397;-70
2021/11/21 07:19:33;;;;;;;33.05;15.63;;;;;;;2.29;100.00;100091.34;5074774;28;20049;-70
2021/11/21 07:22:02;;;;;;;58.13;16.20;;;;;;;2.37;100.00;100092.88;5073780;28;20052;-71
2021/11/21 07:24:31;;;;;;;57.03;14.60;;;;;;;2.36;100.00;100097.28;5073532;28;20048;-72
2021/11/21 07:27:01;;;;;;;71.05;16.30;;;;;;;2.29;100.00;100099.22;5074695;28;20044;-72
2021/11/21 07:29:29;;;;;;;62.10;16.55;;;;;;;2.37;100.00;100108.69;5073545;28;20551;-72
2021/11/21 07:31:59;;;;;;;48.30;16.00;;;;;;;2.41;100.00;100105.03;5074849;28;20127;-72
2021/11/21 07:34:28;;;;;;;56.10;15.73;;;;;;;2.50;100.00;100099.50;5074781;28;20485;-71
2021/11/21 07:36:57;;;;;;;36.33;16.10;;;;;;;2.52;100.00;100097.72;5074753;28;20044;-71
2021/11/21 07:39:25;;;;;;;43.40;16.45;;;;;;;2.45;100.00;100096.16;5074556;28;20119;-71
2021/11/21 07:41:54;;;;;;;50.75;15.10;;;;;;;2.74;100.00;100097.94;5074619;28;20048;-71
2021/11/21 07:44:23;;;;;;;36.00;15.63;;;;;;;2.65;100.00;100093.78;5074029;28;20478;-71
2021/11/21 07:46:52;;;;;;;39.30;14.95;;;;;;;2.96;100.00;100092.84;5074622;28;20044;-71
2021/11/21 07:49:20;;;;;;;38.65;14.30;;;;;;;2.97;100.00;100091.94;5074535;28;20406;-71
2021/11/21 07:51:48;;;;;;;29.65;13.85;;;;;;;3.09;100.00;100094.19;5075030;28;20041;-71
2021/11/21 07:54:19;;;;;;;40.58;14.65;;;;;;;3.18;100.00;100093.88;5074595;28;20496;-71
2021/11/21 07:56:47;;;;;;;97.03;16.30;;;;;;;2.91;100.00;100094.78;5074441;28;20106;-71
2021/11/21 07:59:15;;;;;;;91.10;16.65;;;;;;;2.81;100.00;100088.94;5075167;28;20469;-71
2021/11/21 08:01:46;;;;;;;52.95;15.98;;;;;;;2.84;100.00;100089.69;5076077;28;20425;-71
2021/11/21 08:04:15;;;;;;;79.82;16.85;;;;;;;2.87;100.00;100088.72;5074296;28;20062;-71
2021/11/21 08:06:43;;;;;;;60.75;17.45;;;;;;;2.83;100.00;100087.97;5073850;28;20067;-71
2021/11/21 08:09:12;;;;;;;60.75;16.73;;;;;;;2.98;100.00;100091.00;5073753;28;20045;-71
2021/11/21 08:11:40;;;;;;;72.65;17.02;;;;;;;2.92;100.00;100085.97;5074010;28;20039;-71
2021/11/21 08:14:08;;;;;;;37.47;16.38;;;;;;;2.97;100.00;100073.50;5073508;28;20036;-71
2021/11/21 08:16:36;;;;;;;70.97;17.83;;;;;;;2.79;100.00;100072.28;5073599;28;20049;-71
2021/11/21 08:19:08;;;;;;;36.97;15.88;;;;;;;2.97;100.00;100073.50;5072392;28;20378;-71
2021/11/21 08:21:36;;;;;;;72.20;17.17;;;;;;;3.04;100.00;100077.66;5072721;28;20056;-71
2021/11/21 08:24:07;;;;;;;52.83;16.00;;;;;;;3.24;100.00;100072.59;5073462;28;20044;-70
2021/11/21 08:26:35;;;;;;;153.30;20.40;;;;;;;3.17;100.00;100071.06;5072892;28;20059;-72
2021/11/21 08:29:04;;;;;;;41.30;17.52;;;;;;;3.39;100.00;100071.25;5073514;28;20053;-73
2021/11/21 08:31:52;;;;;;;28.08;15.45;;;;;;;3.78;100.00;100062.88;5073487;28;20059;-72
2021/11/21 08:34:22;;;;;;;56.35;15.73;;;;;;;3.78;100.00;100063.72;5073224;28;20046;-72
2021/11/21 08:36:50;;;;;;;32.15;15.70;;;;;;;3.66;100.00;100067.63;5073764;28;20040;-72
2021/11/21 08:39:21;;;;;;;29.30;15.73;;;;;;;3.82;100.00;100065.31;5073221;28;20379;-71
2021/11/21 08:41:49;;;;;;;51.47;16.48;;;;;;;3.95;100.00;100050.75;5073339;28;20097;-72
2021/11/21 08:44:17;;;;;;;58.25;16.65;;;;;;;3.74;100.00;100057.69;5073125;28;20478;-72
2021/11/21 08:46:46;;;;;;;33.42;17.67;;;;;;;3.70;100.00;100055.22;5073260;28;20527;-72
2021/11/21 08:49:15;;;;;;;42.13;17.30;;;;;;;3.96;100.00;100057.78;5073153;28;20481;-71
2021/11/21 08:51:45;;;;;;;56.03;18.20;;;;;;;3.91;100.00;100051.81;5073300;28;20428;-72
2021/11/21 08:54:15;;;;;;;63.92;19.05;;;;;;;3.87;100.00;100054.63;5073056;28;20045;-71
2021/11/21 08:56:43;;;;;;;60.05;19.15;;;;;;;3.86;100.00;100051.13;5072999;28;20052;-72
2021/11/21 08:59:11;;;;;;;39.80;19.60;;;;;;;4.05;100.00;100055.72;5072566;28;20102;-72
2021/11/21 09:01:40;;;;;;;66.45;20.25;;;;;;;4.00;100.00;100047.97;5073236;28;20041;-69
2021/11/21 09:04:08;;;;;;;48.28;21.15;;;;;;;4.03;100.00;100039.94;5071522;28;20074;-71
2021/11/21 09:06:36;;;;;;;52.60;19.63;;;;;;;4.20;100.00;100039.31;5073117;28;20053;-71
2021/11/21 09:09:06;;;;;;;47.80;21.00;;;;;;;4.53;100.00;100042.44;5073140;28;20044;-71
2021/11/21 09:11:35;;;;;;;59.55;20.60;;;;;;;4.41;100.00;100040.28;5073025;28;20040;-71
2021/11/21 09:14:04;;;;;;;55.85;22.85;;;;;;;4.41;100.00;100037.63;5073109;28;20556;-71
2021/11/21 09:16:33;;;;;;;40.50;20.95;;;;;;;4.58;100.00;100028.16;5072633;28;20117;-71
2021/11/21 09:19:01;;;;;;;47.17;23.88;;;;;;;4.50;100.00;100027.59;5072925;28;20036;-71
2021/11/21 09:21:30;;;;;;;57.80;22.52;;;;;;;4.61;100.00;100035.09;5072717;28;20053;-71
2021/11/21 09:23:58;;;;;;;55.40;21.85;;;;;;;4.73;100.00;100023.16;5072835;28;20047;-71
2021/11/21 09:26:29;;;;;;;40.38;21.17;;;;;;;4.70;100.00;100018.00;5071983;28;20047;-71
2021/11/21 09:28:58;;;;;;;51.78;22.40;;;;;;;4.92;100.00;100012.72;5072377;28;20496;-71
2021/11/21 09:31:26;;;;;;;65.05;23.63;;;;;;;5.02;100.00;100007.03;5072618;28;20041;-71
2021/11/21 09:33:55;;;;;;;47.42;21.05;;;;;;;5.06;100.00;100007.75;5072980;28;20045;-71
2021/11/21 09:36:23;;;;;;;45.42;22.23;;;;;;;5.08;100.00;100000.59;5071621;28;20048;-71
2021/11/21 09:38:51;;;;;;;48.13;23.13;;;;;;;5.16;100.00;99993.22;5072696;28;20490;-71
2021/11/21 09:41:19;;;;;;;42.30;23.13;;;;;;;5.21;100.00;99982.44;5072652;28;20079;-71
2021/11/21 09:43:49;;;;;;;48.45;22.30;;;;;;;5.34;100.00;99991.56;5071531;28;20052;-71
2021/11/21 09:46:18;;;;;;;36.25;19.25;;;;;;;5.33;100.00;99987.22;5072173;28;20102;-72
2021/11/21 09:48:46;;;;;;;38.85;19.70;;;;;;;5.35;100.00;99985.34;5072745;28;20041;-71
2021/11/21 09:51:15;;;;;;;39.10;20.95;;;;;;;5.34;100.00;99984.50;5072535;28;20477;-71
2021/11/21 09:53:45;;;;;;;41.38;20.85;;;;;;;5.16;100.00;99974.69;5072773;28;20042;-71
2021/11/21 09:56:13;;;;;;;41.10;20.65;;;;;;;5.23;100.00;99973.53;5072432;28;20371;-71
2021/11/21 09:58:41;;;;;;;39.10;20.65;;;;;;;5.37;100.00;99971.13;5072450;28;20042;-71
2021/11/21 10:01:32;;;;;;;50.67;25.70;;;;;;;5.53;100.00;99960.75;5071374;28;20102;-71
2021/11/21 10:04:01;;;;;;;38.95;20.95;;;;;;;5.68;100.00;99952.13;5072797;28;20048;-71
2021/11/21 10:06:35;;;;;;;38.20;20.02;;;;;;;5.70;100.00;99960.88;5072133;28;20068;-71
2021/11/21 10:09:05;;;;;;;35.97;18.35;;;;;;;5.77;100.00;99957.94;5072726;28;20044;-71
2021/11/21 10:11:50;;;;;;;33.88;18.23;;;;;;;5.84;100.00;99954.09;5072371;28;20041;-71
2021/11/21 10:14:19;;;;;;;36.72;19.10;;;;;;;5.84;100.00;99948.78;5072373;28;20383;-71
2021/11/21 10:16:48;;;;;;;38.65;20.27;;;;;;;5.71;100.00;99938.78;5073654;28;20523;-71
2021/11/21 10:19:17;;;;;;;34.83;19.95;;;;;;;5.84;100.00;99936.41;5074397;28;20040;-71
2021/11/21 10:21:52;;;;;;;39.35;21.08;;;;;;;5.98;100.00;99943.75;5075948;28;20042;-72
2021/11/21 10:24:24;;;;;;;38.08;20.48;;;;;;;6.15;100.00;99937.66;5075493;28;20090;-70
2021/11/21 10:27:04;;;;;;;37.90;20.58;;;;;;;6.17;100.00;99933.16;5075898;28;20036;-70
2021/11/21 10:29:37;;;;;;;39.35;21.42;;;;;;;6.04;100.00;99935.53;5075592;28;20045;-70
2021/11/21 10:32:16;;;;;;;41.42;22.17;;;;;;;6.18;100.00;99930.47;5075967;28;20044;-69
2021/11/21 10:34:50;;;;;;;38.70;21.35;;;;;;;6.30;100.00;99929.88;5075911;28;20416;-71
2021/11/21 10:37:20;;;;;;;37.33;20.67;;;;;;;6.32;100.00;99927.13;5075650;28;20044;-70
2021/11/21 10:40:07;;;;;;;41.58;20.88;;;;;;;6.39;100.00;99917.13;5075754;28;20086;-71
2021/11/21 10:42:36;;;;;;;40.42;21.35;;;;;;;6.51;100.00;99912.06;5075579;28;20444;-71
2021/11/21 10:45:05;;;;;;;36.97;21.52;;;;;;;6.43;100.00;99911.56;5075385;28;20048;-70
2021/11/21 10:47:47;;;;;;;39.05;22.40;;;;;;;6.46;100.00;99914.06;5074108;28;20052;-70
2021/11/21 10:50:27;;;;;;;41.70;21.92;;;;;;;6.54;100.00;99905.75;5075195;28;20048;-70
2021/11/21 10:52:56;;;;;;;46.08;24.73;;;;;;;6.59;100.00;99904.59;5074781;28;20041;-71
2021/11/21 10:55:25;;;;;;;47.58;25.50;;;;;;;6.58;100.00;99907.34;5074717;28;20127;-70
2021/11/21 10:57:53;;;;;;;52.25;26.67;;;;;;;6.75;100.00;99893.22;5074010;28;20049;-70
2021/11/21 11:00:24;;;;;;;48.42;26.20;;;;;;;6.85;100.00;99890.06;5074833;28;20378;-71
2021/11/21 11:02:54;;;;;;;53.80;29.02;;;;;;;6.65;100.00;99884.88;5075112;28;20047;-72
2021/11/21 11:05:24;;;;;;;49.05;26.77;;;;;;;6.58;100.00;99881.69;5074529;28;20067;-73
2021/11/21 11:07:54;;;;;;;49.90;26.75;;;;;;;6.44;100.00;99867.41;5079495;28;20094;-72
2021/11/21 11:10:25;;;;;;;45.60;26.58;;;;;;;6.29;100.00;99869.03;5079748;28;20065;-70
2021/11/21 11:12:58;;;;;;;46.75;27.25;;;;;;;6.25;100.00;99868.28;5074872;28;20037;-71
2021/11/21 11:15:29;;;;;;;50.58;27.60;;;;;;;6.18;100.00;99861.59;5074692;28;20044;-72
2021/11/21 11:17:59;;;;;;;53.72;29.38;;;;;;;6.08;100.00;99860.31;5074519;28;20036;-69
2021/11/21 11:20:28;;;;;;;52.22;27.67;;;;;;;6.06;100.00;99856.88;5073870;28;20063;-74